createdAt,value
2023-02-18T00:01:44.963Z,13.20
2023-02-18T00:04:13.315Z,12.10
2023-02-18T00:06:43.207Z,12.67
2023-02-18T00:09:12.490Z,11.33
2023-02-18T00:11:41.184Z,13.10
2023-02-18T00:14:13.297Z,12.90
2023-02-18T00:16:42.609Z,12.63
2023-02-18T00:19:15.228Z,12.90
2023-02-18T00:21:45.319Z,10.83
2023-02-18T00:24:16.578Z,11.33
2023-02-18T00:26:46.251Z,9.87
2023-02-18T00:29:14.702Z,9.33
2023-02-18T00:31:43.383Z,9.60
2023-02-18T00:34:12.952Z,9.30
2023-02-18T00:36:41.943Z,9.77
2023-02-18T00:39:12.841Z,8.90
2023-02-18T00:41:42.768Z,9.27
2023-02-18T00:44:12.067Z,8.97
2023-02-18T00:46:41.067Z,9.17
2023-02-18T00:49:09.818Z,8.13
2023-02-18T00:51:38.357Z,8.83
2023-02-18T00:54:06.931Z,10.60
2023-02-18T00:56:37.228Z,11.50
2023-02-18T00:59:05.651Z,11.53
2023-02-18T01:01:35.376Z,11.57
2023-02-18T01:04:03.942Z,12.43
2023-02-18T01:06:33.304Z,11.30
2023-02-18T01:09:01.822Z,10.20
2023-02-18T01:11:31.178Z,8.73
2023-02-18T01:14:01.084Z,8.07
2023-02-18T01:16:31.374Z,9.00
2023-02-18T01:18:59.758Z,10.30
2023-02-18T01:21:28.120Z,8.27
2023-02-18T01:23:56.437Z,8.97
2023-02-18T01:26:25.071Z,9.40
2023-02-18T01:28:54.517Z,8.90
2023-02-18T01:31:24.374Z,9.57
2023-02-18T01:33:52.856Z,9.03
2023-02-18T01:36:22.409Z,9.40
2023-02-18T01:38:50.908Z,9.53
2023-02-18T01:41:19.362Z,9.67
2023-02-18T01:43:49.864Z,9.90
2023-02-18T01:46:20.890Z,9.13
2023-02-18T01:48:55.251Z,8.73
2023-02-18T01:51:28.675Z,8.87
2023-02-18T01:54:02.253Z,8.93
2023-02-18T01:56:34.995Z,8.70
2023-02-18T01:59:11.064Z,8.90
2023-02-18T02:01:41.126Z,9.27
2023-02-18T02:04:11.232Z,11.10
2023-02-18T02:06:39.916Z,10.80
2023-02-18T02:09:11.508Z,9.40
2023-02-18T02:12:15.680Z,8.13
2023-02-18T02:14:59.074Z,8.53
2023-02-18T02:17:35.700Z,8.50
2023-02-18T02:20:42.074Z,8.17
2023-02-18T02:23:36.020Z,10.50
2023-02-18T02:26:42.929Z,10.13
2023-02-18T02:29:56.274Z,10.83
2023-02-18T02:32:55.414Z,10.47
2023-02-18T02:35:29.581Z,9.27
2023-02-18T02:38:04.637Z,10.23
2023-02-18T02:40:40.327Z,9.87
2023-02-18T02:43:14.997Z,10.07
2023-02-18T02:45:55.658Z,8.83
2023-02-18T02:48:33.994Z,9.40
2023-02-18T02:51:12.048Z,10.43
2023-02-18T02:53:43.217Z,10.30
2023-02-18T02:56:16.339Z,10.23
2023-02-18T02:58:48.516Z,9.23
2023-02-18T03:01:28.835Z,8.67
2023-02-18T03:04:20.964Z,8.20
2023-02-18T03:07:08.505Z,7.87
2023-02-18T03:09:48.246Z,9.17
2023-02-18T03:12:25.944Z,9.20
2023-02-18T03:15:05.400Z,8.03
2023-02-18T03:17:37.525Z,8.90
2023-02-18T03:20:11.944Z,8.77
2023-02-18T03:22:46.335Z,7.77
2023-02-18T03:25:17.662Z,8.47
2023-02-18T03:27:50.358Z,8.57
2023-02-18T03:30:24.227Z,7.73
2023-02-18T03:32:58.700Z,8.43
2023-02-18T03:35:29.421Z,8.40
2023-02-18T03:38:05.420Z,8.40
2023-02-18T03:40:34.256Z,7.60
2023-02-18T03:43:03.393Z,7.33
2023-02-18T03:45:31.897Z,8.47
2023-02-18T03:48:00.364Z,8.47
2023-02-18T03:50:28.884Z,7.70
2023-02-18T03:52:57.295Z,8.67
2023-02-18T03:55:27.097Z,7.83
2023-02-18T03:57:55.479Z,7.23
2023-02-18T04:00:23.988Z,7.60
2023-02-18T04:02:52.494Z,7.77
2023-02-18T04:05:21.021Z,6.77
2023-02-18T04:07:49.377Z,7.00
2023-02-18T04:10:18.110Z,7.30
2023-02-18T04:12:48.016Z,8.67
2023-02-18T04:15:16.559Z,7.90
2023-02-18T04:17:45.127Z,8.07
2023-02-18T04:20:14.126Z,7.23
2023-02-18T04:22:42.447Z,7.60
2023-02-18T04:25:10.885Z,6.93
2023-02-18T04:27:39.288Z,6.63
2023-02-18T04:30:10.432Z,6.87
2023-02-18T04:32:38.914Z,7.60
2023-02-18T04:35:07.883Z,7.53
2023-02-18T04:37:36.386Z,7.73
2023-02-18T04:40:05.388Z,7.30
2023-02-18T04:42:33.925Z,7.67
2023-02-18T04:45:02.327Z,8.03
2023-02-18T04:47:32.202Z,7.70
2023-02-18T04:50:00.722Z,6.63
2023-02-18T04:52:29.185Z,6.90
2023-02-18T04:54:57.633Z,7.37
2023-02-18T04:57:26.067Z,6.90
2023-02-18T04:59:54.506Z,6.60
2023-02-18T05:02:22.943Z,6.60
2023-02-18T05:04:52.841Z,6.67
2023-02-18T05:07:21.684Z,6.53
2023-02-18T05:09:50.127Z,6.30
2023-02-18T05:12:18.616Z,7.53
2023-02-18T05:14:47.257Z,6.47
2023-02-18T05:17:15.613Z,6.77
2023-02-18T05:19:44.209Z,6.60
2023-02-18T05:22:14.012Z,6.60
2023-02-18T05:24:42.425Z,6.60
2023-02-18T05:27:10.971Z,6.80
2023-02-18T05:29:39.412Z,6.70
2023-02-18T05:32:07.889Z,6.27
2023-02-18T05:34:36.536Z,6.40
2023-02-18T05:37:04.866Z,7.27
2023-02-18T05:39:34.919Z,6.57
2023-02-18T05:42:03.307Z,6.20
2023-02-18T05:44:30.846Z,6.40
2023-02-18T05:47:01.734Z,6.37
2023-02-18T05:49:30.630Z,5.80
2023-02-18T05:51:59.140Z,6.57
2023-02-18T05:54:27.858Z,6.23
2023-02-18T05:56:57.764Z,6.53
2023-02-18T05:59:26.613Z,6.00
2023-02-18T06:01:55.126Z,5.67
2023-02-18T06:04:23.964Z,6.27
2023-02-18T06:06:52.451Z,6.50
2023-02-18T06:09:20.811Z,5.93
2023-02-18T06:11:49.308Z,6.60
2023-02-18T06:14:19.550Z,6.53
2023-02-18T06:16:47.999Z,6.67
2023-02-18T06:19:16.408Z,5.93
2023-02-18T06:21:45.091Z,5.97
2023-02-18T06:24:13.449Z,6.10
2023-02-18T06:26:41.942Z,6.30
2023-02-18T06:29:10.310Z,6.30
2023-02-18T06:31:41.199Z,5.70
2023-02-18T06:34:09.782Z,5.77
2023-02-18T06:36:38.224Z,5.80
2023-02-18T06:39:07.271Z,6.07
2023-02-18T06:41:36.088Z,5.50
2023-02-18T06:44:04.640Z,6.07
2023-02-18T06:46:33.132Z,5.53
2023-02-18T06:49:03.100Z,6.50
2023-02-18T06:51:32.626Z,5.80
2023-02-18T06:54:01.018Z,5.50
2023-02-18T06:56:30.969Z,5.83
2023-02-18T06:59:00.002Z,6.10
2023-02-18T07:01:29.842Z,5.67
2023-02-18T07:03:58.341Z,6.17
2023-02-18T07:06:28.283Z,7.23
2023-02-18T07:08:56.843Z,6.90
2023-02-18T07:11:26.053Z,5.90
2023-02-18T07:13:54.521Z,6.40
2023-02-18T07:16:23.158Z,6.77
2023-02-18T07:18:51.787Z,5.93
2023-02-18T07:21:20.323Z,6.07
2023-02-18T07:23:50.403Z,5.17
2023-02-18T07:26:18.851Z,5.57
2023-02-18T07:28:49.640Z,5.37
2023-02-18T07:31:18.627Z,5.10
2023-02-18T07:33:49.760Z,5.20
2023-02-18T07:36:18.327Z,6.00
2023-02-18T07:38:46.716Z,5.77
2023-02-18T07:41:20.824Z,5.67
2023-02-18T07:43:49.913Z,6.07
2023-02-18T07:46:18.874Z,6.23
2023-02-18T07:48:47.654Z,5.87
2023-02-18T07:51:17.412Z,7.23
2023-02-18T07:53:47.082Z,5.97
2023-02-18T07:56:16.657Z,5.23
2023-02-18T07:58:46.540Z,4.63
2023-02-18T08:01:17.255Z,4.50
2023-02-18T08:03:46.104Z,5.47
2023-02-18T08:06:23.918Z,5.03
2023-02-18T08:08:53.206Z,4.90
2023-02-18T08:11:23.387Z,5.53
2023-02-18T08:13:53.699Z,6.10
2023-02-18T08:16:23.320Z,4.70
2023-02-18T08:18:53.284Z,5.27
2023-02-18T08:21:23.737Z,8.03
2023-02-18T08:23:52.578Z,7.20
2023-02-18T08:26:21.673Z,6.23
2023-02-18T08:28:50.001Z,5.87
2023-02-18T08:31:21.823Z,5.57
2023-02-18T08:33:50.999Z,5.93
2023-02-18T08:36:19.999Z,5.73
2023-02-18T08:38:49.136Z,4.60
2023-02-18T08:41:20.283Z,5.37
2023-02-18T08:43:49.822Z,4.70
2023-02-18T08:46:25.300Z,5.03
2023-02-18T08:49:03.960Z,5.73
2023-02-18T08:51:33.004Z,5.93
2023-02-18T08:54:02.261Z,5.87
2023-02-18T08:56:31.742Z,9.40
2023-02-18T08:59:00.461Z,12.40
2023-02-18T09:01:30.295Z,12.17
2023-02-18T09:03:58.823Z,9.30
2023-02-18T09:06:27.529Z,6.70
2023-02-18T09:08:57.216Z,6.10
2023-02-18T09:11:26.603Z,5.53
2023-02-18T09:13:55.017Z,5.20
2023-02-18T09:16:26.070Z,6.90
2023-02-18T09:18:56.261Z,8.93
2023-02-18T09:21:24.904Z,11.47
2023-02-18T09:23:53.804Z,14.60
2023-02-18T09:26:23.438Z,17.47
2023-02-18T09:28:52.977Z,27.80
2023-02-18T09:31:24.341Z,22.67
2023-02-18T09:33:56.597Z,24.03
2023-02-18T09:36:25.353Z,30.77
2023-02-18T09:38:54.776Z,21.30
2023-02-18T09:41:32.465Z,29.90
2023-02-18T09:44:04.673Z,18.80
2023-02-18T09:46:37.701Z,15.30
2023-02-18T09:49:10.196Z,14.07
2023-02-18T09:51:39.214Z,13.50
2023-02-18T09:54:11.847Z,9.60
2023-02-18T09:56:42.785Z,9.07
2023-02-18T09:59:17.742Z,8.07
2023-02-18T10:01:49.035Z,7.00
2023-02-18T10:04:23.944Z,7.03
2023-02-18T10:06:54.562Z,6.40
2023-02-18T10:09:25.379Z,7.00
2023-02-18T10:11:57.718Z,6.30
2023-02-18T10:14:27.373Z,7.60
2023-02-18T10:16:55.935Z,6.50
2023-02-18T10:19:31.507Z,6.43
2023-02-18T10:22:02.718Z,6.33
2023-02-18T10:24:33.877Z,6.47
2023-02-18T10:27:05.105Z,5.50
2023-02-18T10:29:33.902Z,5.43
2023-02-18T10:32:09.055Z,5.93
2023-02-18T10:34:44.312Z,5.60
2023-02-18T10:37:32.272Z,5.30
2023-02-18T10:40:11.398Z,5.07
2023-02-18T10:42:50.252Z,5.67
2023-02-18T10:45:30.149Z,4.90
2023-02-18T10:48:14.775Z,4.47
2023-02-18T10:50:47.441Z,3.90
2023-02-18T10:53:20.353Z,4.07
2023-02-18T10:55:50.562Z,3.80
2023-02-18T10:58:36.078Z,3.60
2023-02-18T11:01:08.954Z,3.03
2023-02-18T11:03:43.312Z,2.83
2023-02-18T11:06:25.714Z,2.83
2023-02-18T11:08:56.063Z,2.37
2023-02-18T11:11:26.782Z,2.37
2023-02-18T11:13:57.266Z,2.60
2023-02-18T11:16:37.733Z,2.67
2023-02-18T11:19:06.310Z,3.00
2023-02-18T11:21:39.893Z,2.87
2023-02-18T11:24:11.711Z,2.87
2023-02-18T11:26:41.388Z,2.90
2023-02-18T11:29:20.853Z,3.33
2023-02-18T11:31:51.999Z,3.63
2023-02-18T11:34:23.927Z,4.40
2023-02-18T11:36:54.517Z,3.40
2023-02-18T11:39:26.725Z,4.23
2023-02-18T11:42:00.109Z,3.17
2023-02-18T11:44:31.452Z,3.23
2023-02-18T11:47:03.095Z,3.03
2023-02-18T11:49:34.409Z,3.23
2023-02-18T11:52:18.423Z,3.27
2023-02-18T11:55:02.093Z,3.20
2023-02-18T11:57:30.783Z,3.70
2023-02-18T12:00:01.279Z,3.90
2023-02-18T12:02:35.211Z,3.73
2023-02-18T12:05:12.273Z,3.20
2023-02-18T12:07:45.832Z,4.07
2023-02-18T12:10:17.472Z,3.90
2023-02-18T12:12:48.809Z,4.40
2023-02-18T12:15:23.251Z,4.27
2023-02-18T12:18:05.933Z,4.13
2023-02-18T12:20:54.306Z,5.30
2023-02-18T12:23:32.958Z,5.10
2023-02-18T12:26:14.956Z,5.00
2023-02-18T12:28:59.607Z,5.40
2023-02-18T12:31:59.877Z,5.00
2023-02-18T12:34:53.227Z,5.20
2023-02-18T12:37:49.240Z,4.80
2023-02-18T12:40:48.890Z,5.00
2023-02-18T12:43:28.839Z,4.90
2023-02-18T12:46:20.926Z,5.27
2023-02-18T12:49:04.850Z,4.83
2023-02-18T12:51:46.668Z,5.17
2023-02-18T12:54:30.538Z,5.40
2023-02-18T12:57:20.673Z,4.83
2023-02-18T13:00:10.590Z,5.37
2023-02-18T13:02:57.317Z,4.93
2023-02-18T13:05:34.227Z,4.93
2023-02-18T13:08:17.135Z,6.30
2023-02-18T13:11:04.825Z,5.27
2023-02-18T13:13:37.172Z,5.23
2023-02-18T13:16:11.946Z,5.67
2023-02-18T13:18:44.482Z,5.73
2023-02-18T13:21:16.365Z,4.93
2023-02-18T13:23:51.948Z,5.07
2023-02-18T13:26:23.536Z,4.93
2023-02-18T13:29:04.627Z,4.80
2023-02-18T13:31:45.579Z,4.87
2023-02-18T13:34:21.394Z,4.60
2023-02-18T13:37:02.846Z,4.07
2023-02-18T13:39:32.990Z,4.53
2023-02-18T13:42:25.078Z,4.43
2023-02-18T13:45:31.748Z,4.23
2023-02-18T13:48:02.791Z,4.30
2023-02-18T13:50:43.235Z,4.00
2023-02-18T13:53:26.900Z,4.23
2023-02-18T13:55:59.852Z,4.50
2023-02-18T13:58:34.311Z,3.83
2023-02-18T14:01:14.880Z,4.13
2023-02-18T14:03:59.797Z,4.93
2023-02-18T14:06:31.776Z,4.20
2023-02-18T14:09:41.237Z,3.93
2023-02-18T14:12:28.290Z,4.00
2023-02-18T14:14:56.767Z,4.17
2023-02-18T14:17:43.797Z,3.47
2023-02-18T14:20:51.421Z,4.00
2023-02-18T14:23:43.539Z,4.00
2023-02-18T14:26:22.534Z,4.67
2023-02-18T14:28:56.243Z,3.67
2023-02-18T14:31:45.321Z,4.60
2023-02-18T14:34:49.320Z,4.57
2023-02-18T14:38:11.134Z,4.40
2023-02-18T14:40:59.995Z,4.63
2023-02-18T14:43:52.513Z,4.97
2023-02-18T14:46:34.770Z,5.10
2023-02-18T14:49:27.887Z,4.97
2023-02-18T14:51:58.835Z,4.57
2023-02-18T14:54:30.534Z,4.47
2023-02-18T14:57:04.615Z,4.17
2023-02-18T14:59:37.510Z,5.00
2023-02-18T15:02:10.807Z,4.67
2023-02-18T15:04:39.206Z,4.70
2023-02-18T15:07:12.865Z,5.30
2023-02-18T15:09:48.249Z,4.90
2023-02-18T15:12:22.271Z,5.63
2023-02-18T15:14:55.566Z,4.73
2023-02-18T15:17:27.993Z,5.37
2023-02-18T15:19:58.667Z,4.97
2023-02-18T15:22:30.691Z,5.43
2023-02-18T15:24:59.655Z,5.20
2023-02-18T15:27:32.112Z,5.83
2023-02-18T15:30:14.343Z,5.17
2023-02-18T15:32:47.482Z,5.20
2023-02-18T15:35:18.822Z,5.23
2023-02-18T15:37:48.808Z,4.83
2023-02-18T15:40:19.108Z,5.20
2023-02-18T15:42:52.793Z,4.90
2023-02-18T15:45:23.662Z,4.87
2023-02-18T15:47:55.149Z,4.77
2023-02-18T15:50:27.696Z,4.17
2023-02-18T15:52:59.850Z,4.97
2023-02-18T15:55:33.020Z,4.57
2023-02-18T15:58:05.326Z,4.10
2023-02-18T16:00:38.575Z,4.33
2023-02-18T16:03:14.817Z,5.03
2023-02-18T16:05:43.739Z,3.60
2023-02-18T16:08:16.862Z,4.57
2023-02-18T16:10:56.715Z,4.43
2023-02-18T16:13:27.003Z,4.90
2023-02-18T16:15:55.548Z,4.43
2023-02-18T16:18:27.974Z,4.63
2023-02-18T16:21:02.699Z,4.73
2023-02-18T16:23:37.589Z,4.47
2023-02-18T16:26:29.939Z,4.20
2023-02-18T16:29:07.063Z,4.33
2023-02-18T16:31:35.718Z,4.40
2023-02-18T16:34:04.028Z,4.77
2023-02-18T16:36:33.183Z,5.23
2023-02-18T16:39:02.151Z,5.13
2023-02-18T16:41:31.276Z,5.77
2023-02-18T16:43:59.627Z,5.47
2023-02-18T16:46:31.540Z,5.50
2023-02-18T16:49:00.422Z,5.20
2023-02-18T16:51:32.881Z,5.00
2023-02-18T16:54:01.375Z,5.53
2023-02-18T16:56:33.592Z,5.30
2023-02-18T16:59:02.124Z,4.77
2023-02-18T17:01:34.885Z,5.53
2023-02-18T17:04:04.763Z,5.83
2023-02-18T17:06:34.478Z,6.10
2023-02-18T17:09:03.643Z,4.93
2023-02-18T17:11:35.230Z,5.17
2023-02-18T17:14:05.232Z,6.67
2023-02-18T17:16:35.175Z,13.38
2023-02-18T17:19:04.212Z,40.83
2023-02-18T17:21:32.884Z,45.77
2023-02-18T17:24:02.182Z,31.33
2023-02-18T17:26:31.784Z,26.53
2023-02-18T17:29:01.743Z,19.37
2023-02-18T17:31:32.725Z,14.30
2023-02-18T17:34:05.812Z,9.00
2023-02-18T17:36:34.662Z,8.53
2023-02-18T17:39:03.837Z,6.97
2023-02-18T17:41:32.224Z,5.90
2023-02-18T17:44:01.588Z,5.53
2023-02-18T17:46:30.027Z,10.10
2023-02-18T17:48:59.265Z,19.87
2023-02-18T17:51:30.431Z,13.03
2023-02-18T17:53:58.914Z,7.13
2023-02-18T17:56:27.417Z,6.47
2023-02-18T17:58:55.935Z,5.93
2023-02-18T18:01:25.437Z,7.00
2023-02-18T18:03:53.871Z,6.60
2023-02-18T18:06:22.775Z,6.30
2023-02-18T18:08:52.637Z,5.93
2023-02-18T18:11:24.112Z,6.37
2023-02-18T18:13:54.089Z,6.00
2023-02-18T18:16:22.979Z,5.70
2023-02-18T18:18:51.308Z,5.67
2023-02-18T18:21:24.397Z,5.90
2023-02-18T18:23:54.289Z,6.13
2023-02-18T18:26:22.773Z,6.47
2023-02-18T18:28:51.129Z,5.80
2023-02-18T18:31:21.233Z,5.80
2023-02-18T18:33:53.695Z,5.13
2023-02-18T18:36:24.396Z,5.40
2023-02-18T18:38:54.333Z,5.50
2023-02-18T18:41:23.693Z,4.67
2023-02-18T18:43:52.088Z,4.77
2023-02-18T18:46:20.693Z,4.27
2023-02-18T18:48:49.102Z,4.50
2023-02-18T18:51:20.014Z,4.80
2023-02-18T18:53:48.614Z,4.47
2023-02-18T18:56:18.396Z,4.90
2023-02-18T18:58:46.998Z,4.87
2023-02-18T19:01:18.446Z,4.57
2023-02-18T19:03:47.455Z,4.13
2023-02-18T19:06:17.288Z,4.63
2023-02-18T19:08:48.000Z,4.33
2023-02-18T19:11:18.499Z,5.10
2023-02-18T19:13:47.036Z,5.30
2023-02-18T19:16:19.871Z,4.87
2023-02-18T19:18:48.988Z,4.10
2023-02-18T19:21:18.000Z,4.20
2023-02-18T19:23:46.453Z,5.17
2023-02-18T19:26:17.744Z,4.43
2023-02-18T19:28:46.591Z,4.50
2023-02-18T19:31:15.613Z,4.47
2023-02-18T19:33:46.995Z,5.03
2023-02-18T19:36:16.819Z,4.83
2023-02-18T19:38:45.659Z,4.40
2023-02-18T19:41:17.914Z,4.37
2023-02-18T19:43:48.380Z,4.70
2023-02-18T19:46:19.074Z,5.03
2023-02-18T19:48:50.715Z,4.20
2023-02-18T19:51:19.482Z,4.10
2023-02-18T19:53:47.886Z,4.60
2023-02-18T19:56:16.366Z,4.50
2023-02-18T19:58:44.739Z,5.03
2023-02-18T20:01:15.711Z,4.37
2023-02-18T20:03:44.726Z,4.77
2023-02-18T20:06:17.431Z,4.50
2023-02-18T20:08:45.978Z,4.67
2023-02-18T20:11:14.576Z,4.80
2023-02-18T20:13:42.991Z,5.17
2023-02-18T20:16:12.411Z,4.80
2023-02-18T20:18:42.366Z,4.40
2023-02-18T20:21:12.563Z,5.20
2023-02-18T20:23:40.988Z,4.70
2023-02-18T20:26:10.311Z,6.17
2023-02-18T20:28:38.773Z,5.53
2023-02-18T20:31:08.173Z,4.60
2023-02-18T20:33:36.956Z,4.27
2023-02-18T20:36:08.771Z,5.67
2023-02-18T20:38:38.287Z,4.87
2023-02-18T20:41:08.863Z,5.07
2023-02-18T20:43:37.490Z,5.23
2023-02-18T20:46:07.414Z,5.83
2023-02-18T20:48:36.656Z,5.20
2023-02-18T20:51:08.241Z,5.20
2023-02-18T20:53:38.822Z,5.13
2023-02-18T20:56:08.533Z,4.90
2023-02-18T20:58:37.549Z,5.77
2023-02-18T21:01:08.085Z,7.10
2023-02-18T21:03:37.647Z,5.83
2023-02-18T21:06:09.364Z,5.37
2023-02-18T21:08:40.690Z,6.23
2023-02-18T21:11:11.736Z,5.53
2023-02-18T21:13:40.652Z,4.80
2023-02-18T21:16:10.460Z,4.90
2023-02-18T21:18:39.096Z,5.47
2023-02-18T21:21:10.942Z,5.10
2023-02-18T21:23:40.553Z,5.23
2023-02-18T21:26:11.303Z,5.17
2023-02-18T21:28:40.556Z,5.73
2023-02-18T21:31:17.443Z,6.93
2023-02-18T21:33:46.012Z,5.40
2023-02-18T21:36:17.500Z,6.13
2023-02-18T21:38:46.781Z,5.53
2023-02-18T21:41:15.196Z,6.10
2023-02-18T21:43:46.090Z,5.60
2023-02-18T21:46:17.590Z,5.17
2023-02-18T21:49:06.057Z,5.70
2023-02-18T21:51:56.087Z,5.93
2023-02-18T21:54:26.600Z,5.60
2023-02-18T21:56:56.153Z,5.90
2023-02-18T21:59:27.995Z,5.00
2023-02-18T22:01:59.893Z,5.67
2023-02-18T22:04:31.098Z,5.33
2023-02-18T22:07:01.474Z,6.30
2023-02-18T22:09:30.233Z,5.57
2023-02-18T22:11:58.660Z,5.60
2023-02-18T22:14:27.154Z,5.63
2023-02-18T22:16:55.806Z,6.00
2023-02-18T22:19:24.809Z,6.13
2023-02-18T22:21:56.146Z,5.83
2023-02-18T22:24:27.511Z,5.60
2023-02-18T22:26:57.707Z,5.60
2023-02-18T22:29:26.558Z,4.90
2023-02-18T22:31:56.821Z,6.10
2023-02-18T22:34:26.271Z,5.80
2023-02-18T22:36:54.927Z,5.70
2023-02-18T22:39:23.360Z,5.37
2023-02-18T22:41:53.635Z,5.33
2023-02-18T22:44:24.373Z,5.80
2023-02-18T22:46:55.896Z,6.50
2023-02-18T22:49:24.830Z,5.23
2023-02-18T22:51:54.971Z,6.10
2023-02-18T22:54:23.602Z,5.70
2023-02-18T22:56:55.239Z,6.03
2023-02-18T22:59:24.844Z,5.93
2023-02-18T23:01:53.680Z,5.80
2023-02-18T23:04:22.672Z,6.20
2023-02-18T23:06:52.125Z,5.93
2023-02-18T23:09:23.544Z,6.10
2023-02-18T23:11:56.644Z,5.10
2023-02-18T23:14:28.472Z,5.30
2023-02-18T23:17:17.964Z,6.20
2023-02-18T23:19:49.635Z,7.40
2023-02-18T23:22:20.403Z,5.60
2023-02-18T23:24:49.752Z,6.17
2023-02-18T23:27:23.359Z,5.60
2023-02-18T23:29:52.914Z,5.83
2023-02-18T23:32:21.596Z,6.30
2023-02-18T23:34:51.354Z,5.60
2023-02-18T23:37:42.212Z,6.37
2023-02-18T23:40:13.975Z,5.37
2023-02-18T23:42:44.009Z,6.37
2023-02-18T23:45:12.620Z,6.30
2023-02-18T23:47:42.363Z,6.30
2023-02-18T23:50:13.498Z,5.77
2023-02-18T23:52:42.387Z,6.83
2023-02-18T23:55:11.327Z,5.70
2023-02-18T23:57:39.810Z,5.30
